sensor_id;sensor_type;location;lat;lon;timestamp;P1;durP1;ratioP1;P2;durP2;ratioP2
22632;SDS011;11483;55.828;37.488;2023-02-10T00:01:14;8.13;;;3.63;;
22632;SDS011;11483;55.828;37.488;2023-02-10T00:03:45;9.10;;;4.37;;
22632;SDS011;11483;55.828;37.488;2023-02-10T00:06:11;7.77;;;4.30;;
22632;SDS011;11483;55.828;37.488;2023-02-10T00:08:38;14.53;;;3.63;;
22632;SDS011;11483;55.828;37.488;2023-02-10T00:11:06;13.03;;;4.07;;
22632;SDS011;11483;55.828;37.488;2023-02-10T00:13:35;6.60;;;3.50;;
22632;SDS011;11483;55.828;37.488;2023-02-10T00:16:03;9.13;;;4.00;;
22632;SDS011;11483;55.828;37.488;2023-02-10T00:18:30;8.33;;;3.37;;
22632;SDS011;11483;55.828;37.488;2023-02-10T00:20:56;7.73;;;3.53;;
22632;SDS011;11483;55.828;37.488;2023-02-10T00:23:22;14.27;;;3.70;;
22632;SDS011;11483;55.828;37.488;2023-02-10T00:25:48;6.70;;;3.53;;
22632;SDS011;11483;55.828;37.488;2023-02-10T00:28:14;5.63;;;3.20;;
22632;SDS011;11483;55.828;37.488;2023-02-10T00:30:39;8.30;;;3.40;;
22632;SDS011;11483;55.828;37.488;2023-02-10T00:33:05;9.03;;;3.30;;
22632;SDS011;11483;55.828;37.488;2023-02-10T00:35:31;5.53;;;3.37;;
22632;SDS011;11483;55.828;37.488;2023-02-10T00:37:57;7.40;;;2.87;;
22632;SDS011;11483;55.828;37.488;2023-02-10T00:40:23;6.80;;;3.27;;
22632;SDS011;11483;55.828;37.488;2023-02-10T00:42:49;6.50;;;3.10;;
22632;SDS011;11483;55.828;37.488;2023-02-10T00:45:14;11.50;;;2.77;;
22632;SDS011;11483;55.828;37.488;2023-02-10T00:47:40;4.20;;;2.97;;
22632;SDS011;11483;55.828;37.488;2023-02-10T00:50:06;7.17;;;3.30;;
22632;SDS011;11483;55.828;37.488;2023-02-10T00:52:32;10.07;;;3.13;;
22632;SDS011;11483;55.828;37.488;2023-02-10T00:54:58;7.53;;;3.00;;
22632;SDS011;11483;55.828;37.488;2023-02-10T00:57:24;6.90;;;3.53;;
22632;SDS011;11483;55.828;37.488;2023-02-10T00:59:50;5.67;;;3.23;;
22632;SDS011;11483;55.828;37.488;2023-02-10T01:02:15;11.60;;;4.30;;
22632;SDS011;11483;55.828;37.488;2023-02-10T01:04:41;9.23;;;3.53;;
22632;SDS011;11483;55.828;37.488;2023-02-10T01:07:07;5.67;;;3.47;;
22632;SDS011;11483;55.828;37.488;2023-02-10T01:09:33;8.27;;;3.20;;
22632;SDS011;11483;55.828;37.488;2023-02-10T01:11:59;5.10;;;2.77;;
22632;SDS011;11483;55.828;37.488;2023-02-10T01:14:44;6.10;;;2.67;;
22632;SDS011;11483;55.828;37.488;2023-02-10T01:17:10;8.30;;;3.03;;
22632;SDS011;11483;55.828;37.488;2023-02-10T01:19:35;7.73;;;3.47;;
22632;SDS011;11483;55.828;37.488;2023-02-10T01:22:01;6.97;;;3.60;;
22632;SDS011;11483;55.828;37.488;2023-02-10T01:24:27;8.17;;;3.97;;
22632;SDS011;11483;55.828;37.488;2023-02-10T01:26:53;9.93;;;3.60;;
22632;SDS011;11483;55.828;37.488;2023-02-10T01:29:19;10.33;;;4.13;;
22632;SDS011;11483;55.828;37.488;2023-02-10T01:31:45;7.70;;;3.73;;
22632;SDS011;11483;55.828;37.488;2023-02-10T01:34:10;9.40;;;4.53;;
22632;SDS011;11483;55.828;37.488;2023-02-10T01:36:36;11.60;;;4.57;;
22632;SDS011;11483;55.828;37.488;2023-02-10T01:39:02;8.17;;;3.60;;
22632;SDS011;11483;55.828;37.488;2023-02-10T01:41:28;10.37;;;4.20;;
22632;SDS011;11483;55.828;37.488;2023-02-10T01:43:58;10.43;;;3.80;;
22632;SDS011;11483;55.828;37.488;2023-02-10T01:46:27;11.60;;;5.20;;
22632;SDS011;11483;55.828;37.488;2023-02-10T01:48:54;14.03;;;4.33;;
22632;SDS011;11483;55.828;37.488;2023-02-10T01:51:23;11.70;;;5.03;;
22632;SDS011;11483;55.828;37.488;2023-02-10T01:54:01;10.30;;;4.20;;
22632;SDS011;11483;55.828;37.488;2023-02-10T01:56:28;9.90;;;4.40;;
22632;SDS011;11483;55.828;37.488;2023-02-10T01:58:54;12.03;;;4.90;;
22632;SDS011;11483;55.828;37.488;2023-02-10T02:01:20;13.10;;;4.67;;
22632;SDS011;11483;55.828;37.488;2023-02-10T02:03:46;13.83;;;4.90;;
22632;SDS011;11483;55.828;37.488;2023-02-10T02:06:12;9.43;;;4.57;;
22632;SDS011;11483;55.828;37.488;2023-02-10T02:08:38;12.53;;;4.77;;
22632;SDS011;11483;55.828;37.488;2023-02-10T02:24:58;10.70;;;4.73;;
22632;SDS011;11483;55.828;37.488;2023-02-10T02:33:31;10.87;;;4.07;;
22632;SDS011;11483;55.828;37.488;2023-02-10T02:36:03;9.97;;;4.03;;
22632;SDS011;11483;55.828;37.488;2023-02-10T02:38:39;11.53;;;4.40;;
22632;SDS011;11483;55.828;37.488;2023-02-10T02:41:06;8.77;;;4.67;;
22632;SDS011;11483;55.828;37.488;2023-02-10T02:43:33;10.13;;;5.10;;
22632;SDS011;11483;55.828;37.488;2023-02-10T02:48:57;11.77;;;4.90;;
22632;SDS011;11483;55.828;37.488;2023-02-10T02:51:35;9.27;;;4.33;;
22632;SDS011;11483;55.828;37.488;2023-02-10T03:02:09;13.50;;;5.17;;
22632;SDS011;11483;55.828;37.488;2023-02-10T03:04:37;13.30;;;5.90;;
22632;SDS011;11483;55.828;37.488;2023-02-10T03:07:04;14.60;;;5.83;;
22632;SDS011;11483;55.828;37.488;2023-02-10T03:09:31;11.87;;;5.63;;
22632;SDS011;11483;55.828;37.488;2023-02-10T03:11:57;13.83;;;5.13;;
22632;SDS011;11483;55.828;37.488;2023-02-10T03:14:23;16.83;;;6.00;;
22632;SDS011;11483;55.828;37.488;2023-02-10T03:16:50;15.20;;;6.30;;
22632;SDS011;11483;55.828;37.488;2023-02-10T03:19:16;17.53;;;6.43;;
22632;SDS011;11483;55.828;37.488;2023-02-10T03:21:42;16.33;;;6.30;;
22632;SDS011;11483;55.828;37.488;2023-02-10T03:24:08;14.47;;;5.97;;
22632;SDS011;11483;55.828;37.488;2023-02-10T03:26:34;11.37;;;6.13;;
22632;SDS011;11483;55.828;37.488;2023-02-10T03:29:01;16.03;;;6.43;;
22632;SDS011;11483;55.828;37.488;2023-02-10T03:31:27;17.93;;;7.10;;
22632;SDS011;11483;55.828;37.488;2023-02-10T03:33:53;21.30;;;8.00;;
22632;SDS011;11483;55.828;37.488;2023-02-10T03:36:19;16.70;;;7.90;;
22632;SDS011;11483;55.828;37.488;2023-02-10T03:38:45;16.40;;;7.13;;
22632;SDS011;11483;55.828;37.488;2023-02-10T03:41:11;17.73;;;8.03;;
22632;SDS011;11483;55.828;37.488;2023-02-10T03:43:38;20.83;;;8.47;;
22632;SDS011;11483;55.828;37.488;2023-02-10T03:46:06;17.57;;;8.10;;
22632;SDS011;11483;55.828;37.488;2023-02-10T03:48:33;21.30;;;7.77;;
22632;SDS011;11483;55.828;37.488;2023-02-10T03:51:00;18.27;;;8.30;;
22632;SDS011;11483;55.828;37.488;2023-02-10T03:53:27;24.57;;;9.33;;
22632;SDS011;11483;55.828;37.488;2023-02-10T03:55:54;19.40;;;9.30;;
22632;SDS011;11483;55.828;37.488;2023-02-10T03:58:20;20.93;;;9.50;;
22632;SDS011;11483;55.828;37.488;2023-02-10T04:00:46;22.93;;;10.33;;
22632;SDS011;11483;55.828;37.488;2023-02-10T04:03:12;29.63;;;9.63;;
22632;SDS011;11483;55.828;37.488;2023-02-10T04:05:38;17.60;;;8.63;;
22632;SDS011;11483;55.828;37.488;2023-02-10T04:08:04;18.57;;;8.10;;
22632;SDS011;11483;55.828;37.488;2023-02-10T04:10:30;19.50;;;8.43;;
22632;SDS011;11483;55.828;37.488;2023-02-10T04:12:56;17.93;;;8.07;;
22632;SDS011;11483;55.828;37.488;2023-02-10T04:15:22;22.23;;;9.77;;
22632;SDS011;11483;55.828;37.488;2023-02-10T04:17:48;29.13;;;8.80;;
22632;SDS011;11483;55.828;37.488;2023-02-10T04:20:14;23.87;;;9.83;;
22632;SDS011;11483;55.828;37.488;2023-02-10T04:22:40;20.30;;;8.73;;
22632;SDS011;11483;55.828;37.488;2023-02-10T04:25:06;21.10;;;8.47;;
22632;SDS011;11483;55.828;37.488;2023-02-10T04:27:32;22.43;;;8.47;;
22632;SDS011;11483;55.828;37.488;2023-02-10T04:29:58;21.63;;;10.77;;
22632;SDS011;11483;55.828;37.488;2023-02-10T04:32:24;19.97;;;8.73;;
22632;SDS011;11483;55.828;37.488;2023-02-10T04:34:51;19.10;;;8.40;;
22632;SDS011;11483;55.828;37.488;2023-02-10T04:37:17;20.53;;;8.80;;
22632;SDS011;11483;55.828;37.488;2023-02-10T04:39:43;21.53;;;8.83;;
22632;SDS011;11483;55.828;37.488;2023-02-10T04:42:09;23.77;;;8.87;;
22632;SDS011;11483;55.828;37.488;2023-02-10T04:44:35;22.93;;;9.17;;
22632;SDS011;11483;55.828;37.488;2023-02-10T04:47:01;24.30;;;9.27;;
22632;SDS011;11483;55.828;37.488;2023-02-10T04:49:27;26.90;;;10.03;;
22632;SDS011;11483;55.828;37.488;2023-02-10T04:51:53;22.63;;;9.90;;
22632;SDS011;11483;55.828;37.488;2023-02-10T04:54:20;17.77;;;8.33;;
22632;SDS011;11483;55.828;37.488;2023-02-10T04:56:45;20.83;;;8.60;;
22632;SDS011;11483;55.828;37.488;2023-02-10T04:59:12;23.07;;;9.57;;
22632;SDS011;11483;55.828;37.488;2023-02-10T05:01:38;22.43;;;9.77;;
22632;SDS011;11483;55.828;37.488;2023-02-10T05:04:04;28.93;;;10.60;;
22632;SDS011;11483;55.828;37.488;2023-02-10T05:06:30;21.37;;;8.93;;
22632;SDS011;11483;55.828;37.488;2023-02-10T05:08:55;19.47;;;8.10;;
22632;SDS011;11483;55.828;37.488;2023-02-10T05:11:21;23.37;;;9.93;;
22632;SDS011;11483;55.828;37.488;2023-02-10T05:13:47;25.33;;;8.40;;
22632;SDS011;11483;55.828;37.488;2023-02-10T05:16:14;21.47;;;10.50;;
22632;SDS011;11483;55.828;37.488;2023-02-10T05:18:41;21.40;;;8.50;;
22632;SDS011;11483;55.828;37.488;2023-02-10T05:21:07;22.30;;;9.60;;
22632;SDS011;11483;55.828;37.488;2023-02-10T05:23:34;20.87;;;9.30;;
22632;SDS011;11483;55.828;37.488;2023-02-10T05:26:01;23.27;;;10.43;;
22632;SDS011;11483;55.828;37.488;2023-02-10T05:28:27;22.13;;;10.47;;
22632;SDS011;11483;55.828;37.488;2023-02-10T05:30:53;25.97;;;9.27;;
22632;SDS011;11483;55.828;37.488;2023-02-10T05:33:19;21.03;;;9.63;;
22632;SDS011;11483;55.828;37.488;2023-02-10T05:35:45;26.03;;;10.23;;
22632;SDS011;11483;55.828;37.488;2023-02-10T05:38:11;25.30;;;11.63;;
22632;SDS011;11483;55.828;37.488;2023-02-10T05:40:37;22.53;;;9.77;;
22632;SDS011;11483;55.828;37.488;2023-02-10T05:43:03;20.03;;;9.80;;
22632;SDS011;11483;55.828;37.488;2023-02-10T05:45:30;24.33;;;10.03;;
22632;SDS011;11483;55.828;37.488;2023-02-10T05:47:56;24.93;;;10.03;;
22632;SDS011;11483;55.828;37.488;2023-02-10T05:50:22;21.13;;;8.93;;
22632;SDS011;11483;55.828;37.488;2023-02-10T05:52:48;23.90;;;10.60;;
22632;SDS011;11483;55.828;37.488;2023-02-10T05:55:13;20.13;;;8.93;;
22632;SDS011;11483;55.828;37.488;2023-02-10T05:57:39;21.00;;;10.50;;
22632;SDS011;11483;55.828;37.488;2023-02-10T06:00:05;25.90;;;10.17;;
22632;SDS011;11483;55.828;37.488;2023-02-10T06:02:32;22.10;;;10.33;;
22632;SDS011;11483;55.828;37.488;2023-02-10T06:04:58;19.83;;;10.33;;
22632;SDS011;11483;55.828;37.488;2023-02-10T06:07:24;23.80;;;9.33;;
22632;SDS011;11483;55.828;37.488;2023-02-10T06:09:50;18.80;;;8.60;;
22632;SDS011;11483;55.828;37.488;2023-02-10T06:12:16;25.00;;;10.97;;
22632;SDS011;11483;55.828;37.488;2023-02-10T06:14:42;23.83;;;10.40;;
22632;SDS011;11483;55.828;37.488;2023-02-10T06:17:08;21.53;;;10.10;;
22632;SDS011;11483;55.828;37.488;2023-02-10T06:19:37;18.93;;;8.37;;
22632;SDS011;11483;55.828;37.488;2023-02-10T06:22:05;17.40;;;7.87;;
22632;SDS011;11483;55.828;37.488;2023-02-10T06:24:31;18.97;;;9.03;;
22632;SDS011;11483;55.828;37.488;2023-02-10T06:26:57;20.57;;;8.83;;
22632;SDS011;11483;55.828;37.488;2023-02-10T06:29:23;22.83;;;9.50;;
22632;SDS011;11483;55.828;37.488;2023-02-10T06:31:50;21.13;;;9.10;;
22632;SDS011;11483;55.828;37.488;2023-02-10T06:34:16;18.73;;;9.90;;
22632;SDS011;11483;55.828;37.488;2023-02-10T06:36:42;18.00;;;8.63;;
22632;SDS011;11483;55.828;37.488;2023-02-10T06:39:07;16.27;;;6.97;;
22632;SDS011;11483;55.828;37.488;2023-02-10T06:41:33;18.83;;;8.20;;
22632;SDS011;11483;55.828;37.488;2023-02-10T06:43:59;16.37;;;7.63;;
22632;SDS011;11483;55.828;37.488;2023-02-10T06:46:25;19.07;;;9.07;;
22632;SDS011;11483;55.828;37.488;2023-02-10T06:48:51;16.27;;;7.60;;
22632;SDS011;11483;55.828;37.488;2023-02-10T06:51:17;19.83;;;9.20;;
22632;SDS011;11483;55.828;37.488;2023-02-10T06:53:43;18.23;;;8.30;;
22632;SDS011;11483;55.828;37.488;2023-02-10T06:56:10;20.57;;;8.90;;
22632;SDS011;11483;55.828;37.488;2023-02-10T06:58:37;22.97;;;9.30;;
22632;SDS011;11483;55.828;37.488;2023-02-10T07:01:06;25.43;;;9.47;;
22632;SDS011;11483;55.828;37.488;2023-02-10T07:03:33;21.40;;;9.20;;
22632;SDS011;11483;55.828;37.488;2023-02-10T07:05:59;18.90;;;8.60;;
22632;SDS011;11483;55.828;37.488;2023-02-10T07:08:25;22.20;;;9.17;;
22632;SDS011;11483;55.828;37.488;2023-02-10T07:10:51;14.50;;;7.13;;
22632;SDS011;11483;55.828;37.488;2023-02-10T07:13:16;19.53;;;8.73;;
22632;SDS011;11483;55.828;37.488;2023-02-10T07:15:42;22.03;;;8.83;;
22632;SDS011;11483;55.828;37.488;2023-02-10T07:18:09;18.53;;;7.43;;
22632;SDS011;11483;55.828;37.488;2023-02-10T07:20:34;19.27;;;8.50;;
22632;SDS011;11483;55.828;37.488;2023-02-10T07:23:00;20.23;;;9.07;;
22632;SDS011;11483;55.828;37.488;2023-02-10T07:25:26;18.83;;;8.43;;
22632;SDS011;11483;55.828;37.488;2023-02-10T07:27:52;21.83;;;10.00;;
22632;SDS011;11483;55.828;37.488;2023-02-10T07:30:18;18.40;;;8.07;;
22632;SDS011;11483;55.828;37.488;2023-02-10T07:32:44;15.17;;;7.70;;
22632;SDS011;11483;55.828;37.488;2023-02-10T07:35:10;21.43;;;8.30;;
22632;SDS011;11483;55.828;37.488;2023-02-10T07:37:37;18.60;;;7.97;;
22632;SDS011;11483;55.828;37.488;2023-02-10T07:40:03;15.73;;;7.47;;
22632;SDS011;11483;55.828;37.488;2023-02-10T07:42:29;17.67;;;8.33;;
22632;SDS011;11483;55.828;37.488;2023-02-10T07:44:57;20.17;;;8.23;;
22632;SDS011;11483;55.828;37.488;2023-02-10T07:47:23;19.47;;;8.40;;
22632;SDS011;11483;55.828;37.488;2023-02-10T07:49:49;21.50;;;7.70;;
22632;SDS011;11483;55.828;37.488;2023-02-10T07:52:16;21.17;;;9.03;;
22632;SDS011;11483;55.828;37.488;2023-02-10T07:54:42;22.30;;;9.03;;
22632;SDS011;11483;55.828;37.488;2023-02-10T07:57:08;16.77;;;7.27;;
22632;SDS011;11483;55.828;37.488;2023-02-10T07:59:34;18.27;;;7.70;;
22632;SDS011;11483;55.828;37.488;2023-02-10T08:01:59;17.33;;;8.27;;
22632;SDS011;11483;55.828;37.488;2023-02-10T08:04:25;20.17;;;7.93;;
22632;SDS011;11483;55.828;37.488;2023-02-10T08:06:51;15.00;;;7.17;;
22632;SDS011;11483;55.828;37.488;2023-02-10T08:09:17;14.73;;;6.50;;
22632;SDS011;11483;55.828;37.488;2023-02-10T08:11:43;14.13;;;6.93;;
22632;SDS011;11483;55.828;37.488;2023-02-10T08:14:09;17.80;;;7.57;;
22632;SDS011;11483;55.828;37.488;2023-02-10T08:16:35;20.00;;;6.73;;
22632;SDS011;11483;55.828;37.488;2023-02-10T08:19:01;14.73;;;7.10;;
22632;SDS011;11483;55.828;37.488;2023-02-10T08:21:27;17.50;;;7.30;;
22632;SDS011;11483;55.828;37.488;2023-02-10T08:23:53;19.10;;;7.63;;
22632;SDS011;11483;55.828;37.488;2023-02-10T08:26:22;16.97;;;7.17;;
22632;SDS011;11483;55.828;37.488;2023-02-10T08:28:47;17.30;;;7.63;;
22632;SDS011;11483;55.828;37.488;2023-02-10T08:31:14;14.43;;;6.83;;
22632;SDS011;11483;55.828;37.488;2023-02-10T08:33:40;12.83;;;6.90;;
22632;SDS011;11483;55.828;37.488;2023-02-10T08:36:07;17.17;;;7.53;;
22632;SDS011;11483;55.828;37.488;2023-02-10T08:45:54;16.00;;;6.40;;
22632;SDS011;11483;55.828;37.488;2023-02-10T08:48:21;13.93;;;7.32;;
22632;SDS011;11483;55.828;37.488;2023-02-10T08:50:46;15.65;;;7.05;;
22632;SDS011;11483;55.828;37.488;2023-02-10T08:53:12;15.82;;;7.82;;
22632;SDS011;11483;55.828;37.488;2023-02-10T08:55:38;16.73;;;7.13;;
22632;SDS011;11483;55.828;37.488;2023-02-10T08:58:04;20.30;;;6.73;;
22632;SDS011;11483;55.828;37.488;2023-02-10T09:00:30;15.90;;;7.33;;
22632;SDS011;11483;55.828;37.488;2023-02-10T09:02:57;20.57;;;8.67;;
22632;SDS011;11483;55.828;37.488;2023-02-10T09:05:23;19.70;;;7.30;;
22632;SDS011;11483;55.828;37.488;2023-02-10T09:07:49;15.33;;;5.87;;
22632;SDS011;11483;55.828;37.488;2023-02-10T09:10:15;15.97;;;7.03;;
22632;SDS011;11483;55.828;37.488;2023-02-10T09:12:41;13.10;;;7.50;;
22632;SDS011;11483;55.828;37.488;2023-02-10T09:15:08;12.57;;;6.27;;
22632;SDS011;11483;55.828;37.488;2023-02-10T09:17:34;16.77;;;7.17;;
22632;SDS011;11483;55.828;37.488;2023-02-10T09:20:00;19.67;;;6.97;;
22632;SDS011;11483;55.828;37.488;2023-02-10T09:22:26;20.33;;;7.40;;
22632;SDS011;11483;55.828;37.488;2023-02-10T09:24:52;15.23;;;6.73;;
22632;SDS011;11483;55.828;37.488;2023-02-10T09:27:19;14.53;;;6.33;;
22632;SDS011;11483;55.828;37.488;2023-02-10T09:29:45;15.20;;;5.97;;
22632;SDS011;11483;55.828;37.488;2023-02-10T09:32:11;15.17;;;6.47;;
22632;SDS011;11483;55.828;37.488;2023-02-10T09:34:37;13.43;;;6.30;;
22632;SDS011;11483;55.828;37.488;2023-02-10T09:37:05;14.17;;;5.73;;
22632;SDS011;11483;55.828;37.488;2023-02-10T09:39:31;11.43;;;5.33;;
22632;SDS011;11483;55.828;37.488;2023-02-10T09:44:36;15.80;;;5.83;;
22632;SDS011;11483;55.828;37.488;2023-02-10T09:52:45;13.07;;;5.03;;
22632;SDS011;11483;55.828;37.488;2023-02-10T09:55:39;13.63;;;5.57;;
22632;SDS011;11483;55.828;37.488;2023-02-10T09:58:17;12.20;;;5.07;;
22632;SDS011;11483;55.828;37.488;2023-02-10T10:06:27;12.93;;;5.30;;
22632;SDS011;11483;55.828;37.488;2023-02-10T10:11:40;14.07;;;6.20;;
22632;SDS011;11483;55.828;37.488;2023-02-10T10:25:56;10.63;;;5.53;;
22632;SDS011;11483;55.828;37.488;2023-02-10T10:28:54;16.40;;;5.50;;
22632;SDS011;11483;55.828;37.488;2023-02-10T10:31:39;12.60;;;5.03;;
22632;SDS011;11483;55.828;37.488;2023-02-10T10:34:16;13.17;;;6.43;;
22632;SDS011;11483;55.828;37.488;2023-02-10T10:36:47;11.30;;;5.10;;
22632;SDS011;11483;55.828;37.488;2023-02-10T10:42:26;14.60;;;5.23;;
22632;SDS011;11483;55.828;37.488;2023-02-10T10:45:06;12.83;;;4.23;;
22632;SDS011;11483;55.828;37.488;2023-02-10T10:47:49;16.20;;;4.83;;
22632;SDS011;11483;55.828;37.488;2023-02-10T10:50:22;14.47;;;4.97;;
22632;SDS011;11483;55.828;37.488;2023-02-10T10:52:50;13.13;;;4.93;;
22632;SDS011;11483;55.828;37.488;2023-02-10T10:55:40;14.13;;;6.17;;
22632;SDS011;11483;55.828;37.488;2023-02-10T11:00:50;10.13;;;4.93;;
22632;SDS011;11483;55.828;37.488;2023-02-10T11:03:18;13.60;;;6.63;;
22632;SDS011;11483;55.828;37.488;2023-02-10T11:05:44;15.53;;;5.97;;
22632;SDS011;11483;55.828;37.488;2023-02-10T11:08:24;12.93;;;5.50;;
22632;SDS011;11483;55.828;37.488;2023-02-10T11:10:54;18.77;;;5.30;;
22632;SDS011;11483;55.828;37.488;2023-02-10T11:13:23;12.73;;;5.70;;
22632;SDS011;11483;55.828;37.488;2023-02-10T11:16:02;15.70;;;5.83;;
22632;SDS011;11483;55.828;37.488;2023-02-10T11:18:30;22.53;;;5.50;;
22632;SDS011;11483;55.828;37.488;2023-02-10T11:23:27;14.23;;;6.27;;
22632;SDS011;11483;55.828;37.488;2023-02-10T11:26:04;12.53;;;5.43;;
22632;SDS011;11483;55.828;37.488;2023-02-10T11:28:41;14.43;;;5.90;;
22632;SDS011;11483;55.828;37.488;2023-02-10T11:31:21;15.63;;;5.87;;
22632;SDS011;11483;55.828;37.488;2023-02-10T11:34:02;14.70;;;5.63;;
22632;SDS011;11483;55.828;37.488;2023-02-10T11:36:40;13.73;;;6.43;;
22632;SDS011;11483;55.828;37.488;2023-02-10T11:39:21;17.20;;;6.43;;
22632;SDS011;11483;55.828;37.488;2023-02-10T11:41:48;19.13;;;6.73;;
22632;SDS011;11483;55.828;37.488;2023-02-10T11:44:26;16.97;;;5.90;;
22632;SDS011;11483;55.828;37.488;2023-02-10T11:46:55;14.17;;;6.17;;
22632;SDS011;11483;55.828;37.488;2023-02-10T11:49:26;17.30;;;5.70;;
22632;SDS011;11483;55.828;37.488;2023-02-10T11:51:57;19.13;;;8.77;;
22632;SDS011;11483;55.828;37.488;2023-02-10T11:54:27;17.50;;;7.20;;
22632;SDS011;11483;55.828;37.488;2023-02-10T12:16:05;14.67;;;6.23;;
22632;SDS011;11483;55.828;37.488;2023-02-10T12:19:04;16.00;;;6.47;;
22632;SDS011;11483;55.828;37.488;2023-02-10T12:21:43;16.87;;;6.77;;
22632;SDS011;11483;55.828;37.488;2023-02-10T12:28:07;17.27;;;6.77;;
22632;SDS011;11483;55.828;37.488;2023-02-10T12:30:53;15.00;;;7.90;;
22632;SDS011;11483;55.828;37.488;2023-02-10T12:36:19;15.20;;;7.33;;
22632;SDS011;11483;55.828;37.488;2023-02-10T12:39:08;15.57;;;6.70;;
22632;SDS011;11483;55.828;37.488;2023-02-10T12:47:05;14.67;;;6.93;;
22632;SDS011;11483;55.828;37.488;2023-02-10T12:52:43;18.37;;;8.10;;
22632;SDS011;11483;55.828;37.488;2023-02-10T12:55:22;14.63;;;7.23;;
22632;SDS011;11483;55.828;37.488;2023-02-10T12:57:55;15.27;;;7.23;;
22632;SDS011;11483;55.828;37.488;2023-02-10T13:00:30;18.37;;;7.30;;
22632;SDS011;11483;55.828;37.488;2023-02-10T13:05:38;15.90;;;7.03;;
22632;SDS011;11483;55.828;37.488;2023-02-10T13:08:17;15.63;;;6.97;;
22632;SDS011;11483;55.828;37.488;2023-02-10T13:10:53;15.93;;;6.53;;
22632;SDS011;11483;55.828;37.488;2023-02-10T13:13:29;17.73;;;8.70;;
22632;SDS011;11483;55.828;37.488;2023-02-10T13:16:15;16.90;;;8.47;;
22632;SDS011;11483;55.828;37.488;2023-02-10T13:19:27;16.40;;;6.63;;
22632;SDS011;11483;55.828;37.488;2023-02-10T13:24:28;17.13;;;7.33;;
22632;SDS011;11483;55.828;37.488;2023-02-10T13:32:51;18.20;;;7.03;;
22632;SDS011;11483;55.828;37.488;2023-02-10T13:35:40;17.20;;;8.17;;
22632;SDS011;11483;55.828;37.488;2023-02-10T13:38:08;14.63;;;7.40;;
22632;SDS011;11483;55.828;37.488;2023-02-10T13:40:47;16.17;;;7.13;;
22632;SDS011;11483;55.828;37.488;2023-02-10T13:45:50;13.93;;;7.00;;
22632;SDS011;11483;55.828;37.488;2023-02-10T13:48:20;19.93;;;8.40;;
22632;SDS011;11483;55.828;37.488;2023-02-10T13:50:58;15.33;;;6.03;;
22632;SDS011;11483;55.828;37.488;2023-02-10T13:58:48;15.17;;;6.77;;
22632;SDS011;11483;55.828;37.488;2023-02-10T14:01:47;19.80;;;7.20;;
22632;SDS011;11483;55.828;37.488;2023-02-10T14:06:47;17.93;;;8.20;;
22632;SDS011;11483;55.828;37.488;2023-02-10T14:11:59;17.27;;;7.53;;
22632;SDS011;11483;55.828;37.488;2023-02-10T14:14:31;15.90;;;7.17;;
22632;SDS011;11483;55.828;37.488;2023-02-10T14:17:06;16.40;;;6.97;;
22632;SDS011;11483;55.828;37.488;2023-02-10T14:19:42;20.03;;;7.17;;
22632;SDS011;11483;55.828;37.488;2023-02-10T14:24:54;17.83;;;7.03;;
22632;SDS011;11483;55.828;37.488;2023-02-10T14:27:25;18.03;;;6.93;;
22632;SDS011;11483;55.828;37.488;2023-02-10T14:30:36;16.83;;;7.60;;
22632;SDS011;11483;55.828;37.488;2023-02-10T14:32:45;16.83;;;7.20;;
22632;SDS011;11483;55.828;37.488;2023-02-10T14:35:15;14.13;;;5.90;;
22632;SDS011;11483;55.828;37.488;2023-02-10T14:37:50;14.00;;;6.33;;
22632;SDS011;11483;55.828;37.488;2023-02-10T14:40:18;15.17;;;6.43;;
22632;SDS011;11483;55.828;37.488;2023-02-10T14:42:46;22.37;;;6.70;;
22632;SDS011;11483;55.828;37.488;2023-02-10T14:45:23;19.53;;;6.63;;
22632;SDS011;11483;55.828;37.488;2023-02-10T14:47:52;15.53;;;6.50;;
22632;SDS011;11483;55.828;37.488;2023-02-10T14:50:24;17.13;;;6.67;;
22632;SDS011;11483;55.828;37.488;2023-02-10T14:52:55;16.87;;;6.70;;
22632;SDS011;11483;55.828;37.488;2023-02-10T14:55:29;14.40;;;6.60;;
22632;SDS011;11483;55.828;37.488;2023-02-10T14:58:17;14.77;;;6.53;;
22632;SDS011;11483;55.828;37.488;2023-02-10T15:03:27;15.53;;;6.43;;
22632;SDS011;11483;55.828;37.488;2023-02-10T15:05:54;17.07;;;7.17;;
22632;SDS011;11483;55.828;37.488;2023-02-10T15:08:38;20.63;;;7.53;;
22632;SDS011;11483;55.828;37.488;2023-02-10T15:11:25;16.90;;;7.00;;
22632;SDS011;11483;55.828;37.488;2023-02-10T15:15:00;14.20;;;5.70;;
22632;SDS011;11483;55.828;37.488;2023-02-10T15:17:23;15.87;;;5.47;;
22632;SDS011;11483;55.828;37.488;2023-02-10T15:20:01;19.00;;;6.43;;
22632;SDS011;11483;55.828;37.488;2023-02-10T15:22:41;18.23;;;6.93;;
22632;SDS011;11483;55.828;37.488;2023-02-10T15:27:59;13.90;;;5.30;;
22632;SDS011;11483;55.828;37.488;2023-02-10T15:31:27;13.30;;;6.57;;
22632;SDS011;11483;55.828;37.488;2023-02-10T15:36:20;15.10;;;6.00;;
22632;SDS011;11483;55.828;37.488;2023-02-10T15:41:27;15.07;;;6.13;;
22632;SDS011;11483;55.828;37.488;2023-02-10T15:43:54;16.33;;;7.33;;
22632;SDS011;11483;55.828;37.488;2023-02-10T15:46:25;12.63;;;6.10;;
22632;SDS011;11483;55.828;37.488;2023-02-10T15:49:04;19.30;;;6.77;;
22632;SDS011;11483;55.828;37.488;2023-02-10T15:51:34;15.83;;;6.57;;
22632;SDS011;11483;55.828;37.488;2023-02-10T15:54:08;15.50;;;6.07;;
22632;SDS011;11483;55.828;37.488;2023-02-10T15:56:53;14.77;;;6.30;;
22632;SDS011;11483;55.828;37.488;2023-02-10T15:59:23;22.73;;;6.57;;
22632;SDS011;11483;55.828;37.488;2023-02-10T16:01:53;18.20;;;7.20;;
22632;SDS011;11483;55.828;37.488;2023-02-10T16:04:23;16.73;;;7.07;;
22632;SDS011;11483;55.828;37.488;2023-02-10T16:06:49;17.73;;;6.77;;
22632;SDS011;11483;55.828;37.488;2023-02-10T16:09:18;19.47;;;7.63;;
22632;SDS011;11483;55.828;37.488;2023-02-10T16:11:50;18.97;;;6.77;;
22632;SDS011;11483;55.828;37.488;2023-02-10T16:14:17;15.60;;;7.00;;
22632;SDS011;11483;55.828;37.488;2023-02-10T16:16:45;20.27;;;7.93;;
22632;SDS011;11483;55.828;37.488;2023-02-10T16:19:17;23.47;;;7.67;;
22632;SDS011;11483;55.828;37.488;2023-02-10T16:21:51;18.20;;;6.60;;
22632;SDS011;11483;55.828;37.488;2023-02-10T16:24:22;19.57;;;7.57;;
22632;SDS011;11483;55.828;37.488;2023-02-10T16:26:50;23.57;;;7.43;;
22632;SDS011;11483;55.828;37.488;2023-02-10T16:29:17;20.17;;;8.23;;
22632;SDS011;11483;55.828;37.488;2023-02-10T16:31:45;21.03;;;7.93;;
22632;SDS011;11483;55.828;37.488;2023-02-10T16:34:11;22.70;;;9.43;;
22632;SDS011;11483;55.828;37.488;2023-02-10T16:36:38;22.80;;;7.77;;
22632;SDS011;11483;55.828;37.488;2023-02-10T16:39:05;19.03;;;8.37;;
22632;SDS011;11483;55.828;37.488;2023-02-10T16:41:53;19.97;;;9.23;;
22632;SDS011;11483;55.828;37.488;2023-02-10T16:44:19;26.30;;;9.90;;
22632;SDS011;11483;55.828;37.488;2023-02-10T16:46:46;21.37;;;8.83;;
22632;SDS011;11483;55.828;37.488;2023-02-10T16:49:13;24.87;;;8.60;;
22632;SDS011;11483;55.828;37.488;2023-02-10T16:51:40;22.43;;;9.03;;
22632;SDS011;11483;55.828;37.488;2023-02-10T16:54:07;21.17;;;8.97;;
22632;SDS011;11483;55.828;37.488;2023-02-10T16:56:36;22.43;;;8.53;;
22632;SDS011;11483;55.828;37.488;2023-02-10T16:59:03;25.80;;;10.13;;
22632;SDS011;11483;55.828;37.488;2023-02-10T17:01:32;29.17;;;11.07;;